< < Back
Terminal Aerodrome Forecast


Current Version              Previous Versions:   1  2  3  4  5  6  7  8  9  

Terminal Aerodrome Forecast

520
FTUS42 KGSP 222337
TAFAND
TAF
KAND 222337Z 2300/2324 21006KT P6SM VCSH SCT050 BKN250
     FM230300 23003KT P6SM FEW080 SCT250
     FM230700 00000KT 6SM BR SCT250
     FM231400 21006KT P6SM SCT060=

Latest METAR

881
SAUS70 KWBC 231100 RRD
MTRAND
METAR KAND 231056Z AUTO 00000KT 10SM CLR 22/21 A3003 RMK AO2 SLP157
T02220206


USA.gov is the U.S. government's official web portal to all federal, state and local government web resources and services.